createdAt,value
2023-05-15T14:20:54.614Z,18.23
2023-05-15T14:25:54.587Z,18.49
2023-05-15T14:30:53.566Z,18.75
2023-05-15T14:35:52.593Z,18.97
2023-05-15T14:40:51.581Z,19.19
2023-05-15T14:45:50.683Z,19.37
2023-05-15T14:50:49.334Z,19.49
2023-05-15T14:55:48.306Z,19.59
2023-05-15T15:00:47.235Z,19.70
2023-05-15T15:05:46.148Z,19.79
2023-05-15T15:10:45.137Z,19.78
2023-05-15T15:15:44.155Z,19.37
2023-05-15T15:20:43.055Z,18.60
2023-05-15T15:25:41.930Z,18.06
2023-05-15T15:30:40.946Z,17.72
2023-05-15T15:35:39.858Z,17.46
2023-05-15T15:40:38.784Z,17.16
2023-05-15T15:45:37.838Z,16.82
2023-05-15T15:50:36.688Z,16.88
2023-05-15T15:55:35.689Z,16.90
2023-05-15T16:00:34.638Z,17.02
2023-05-15T16:05:33.552Z,17.16
2023-05-15T16:10:32.759Z,17.28
2023-05-15T16:15:31.445Z,17.20
2023-05-15T16:20:30.553Z,17.09
2023-05-15T16:25:29.355Z,17.04
2023-05-15T16:30:44.415Z,16.99
2023-05-15T16:35:27.227Z,16.98
2023-05-15T16:40:26.326Z,17.02
2023-05-15T16:45:25.184Z,16.98
2023-05-15T16:50:24.233Z,16.91
2023-05-15T16:55:23.014Z,16.92
2023-05-15T17:00:22.003Z,16.98
2023-05-15T17:05:20.916Z,17.02
2023-05-15T17:10:19.867Z,17.10
2023-05-15T17:15:18.822Z,17.14
2023-05-15T17:20:17.780Z,17.19
2023-05-15T17:25:16.789Z,17.16
2023-05-15T17:30:15.715Z,17.06
2023-05-15T17:35:14.604Z,16.98
2023-05-15T17:40:13.588Z,16.92
2023-05-15T17:45:12.498Z,16.90
2023-05-15T17:50:11.464Z,16.84
2023-05-15T17:55:10.412Z,16.79
2023-05-15T18:00:09.416Z,16.80
2023-05-15T18:05:08.302Z,16.82
2023-05-15T18:10:07.284Z,16.83
2023-05-15T18:15:06.189Z,16.76
2023-05-15T18:20:05.179Z,16.62
2023-05-15T18:25:04.074Z,16.51
2023-05-15T18:30:03.091Z,16.36
2023-05-15T18:35:01.999Z,16.17
2023-05-15T18:40:01.018Z,15.90
2023-05-15T18:44:59.887Z,15.87
2023-05-15T18:49:58.876Z,15.81
2023-05-15T18:54:57.813Z,15.77
2023-05-15T18:59:56.792Z,15.66
2023-05-15T19:04:55.661Z,15.48
2023-05-15T19:09:54.625Z,15.38
2023-05-15T19:14:53.626Z,15.29
2023-05-15T19:19:52.514Z,15.26
2023-05-15T19:24:51.495Z,15.26
2023-05-15T19:29:50.474Z,15.29
2023-05-15T19:34:49.383Z,15.25
2023-05-15T19:39:48.340Z,15.20
2023-05-15T19:44:47.247Z,15.15
2023-05-15T19:49:46.205Z,15.11
2023-05-15T19:54:45.187Z,15.11
2023-05-15T19:59:44.262Z,15.11
2023-05-15T20:04:43.297Z,15.14
2023-05-15T20:09:41.995Z,15.08
2023-05-15T20:14:40.990Z,15.05
2023-05-15T20:19:39.960Z,15.07
2023-05-15T20:24:38.901Z,15.04
2023-05-15T20:29:37.849Z,14.93
2023-05-15T20:34:36.788Z,14.87
2023-05-15T20:39:35.849Z,14.83
2023-05-15T20:44:34.691Z,14.78
2023-05-15T20:49:33.578Z,14.73
2023-05-15T20:54:32.581Z,14.73
2023-05-15T20:59:31.558Z,14.74
2023-05-15T21:04:30.680Z,14.79
2023-05-15T21:09:29.504Z,14.87
2023-05-15T21:14:28.321Z,14.93
2023-05-15T21:19:27.299Z,14.95
2023-05-15T21:24:26.363Z,14.97
2023-05-15T21:29:25.171Z,14.97
2023-05-15T21:34:24.189Z,14.97
2023-05-15T21:39:23.058Z,14.99
2023-05-15T21:44:22.030Z,14.96
2023-05-15T21:49:21.034Z,14.92
2023-05-15T21:54:20.083Z,14.86
2023-05-15T21:59:18.875Z,14.85
2023-05-15T22:04:17.819Z,14.78
2023-05-15T22:09:17.050Z,14.73
2023-05-15T22:14:15.698Z,14.64
2023-05-15T22:19:31.663Z,14.59
2023-05-15T22:24:13.850Z,14.53
2023-05-15T22:29:12.549Z,14.51
2023-05-15T22:34:11.522Z,14.52
2023-05-15T22:39:10.521Z,14.48
2023-05-15T22:44:09.511Z,14.44
2023-05-15T22:49:08.631Z,14.41
2023-05-15T22:54:07.263Z,14.40
2023-05-15T22:59:06.244Z,14.34
2023-05-15T23:04:05.250Z,14.31
2023-05-15T23:09:04.179Z,14.30
2023-05-15T23:14:03.083Z,14.23
2023-05-15T23:19:02.353Z,14.23
2023-05-15T23:24:01.014Z,14.18
2023-05-15T23:28:59.922Z,14.11
2023-05-15T23:33:58.885Z,14.01
2023-05-15T23:38:57.799Z,13.96
2023-05-15T23:43:56.777Z,13.82
2023-05-15T23:48:55.730Z,13.78
2023-05-15T23:53:54.742Z,13.76
2023-05-15T23:58:53.621Z,13.73
